Habay-la-Vieille, Belgium
Current Conditions -  °F | °C
As of 4:20 AM on Tuesday 21 Oct 2014 (Local Time) from ELLX Reporting Station
NA  
Wind Chill: 50°   Ceiling: NA
Heat Index: 50°   Visibility: 4mi
Dew Point: 50°   Wind: 8mph
Humidity: 100%   Direction: 240°WSW
Pressure: 29.94"   Gusts: NA
Location:  49.72°N, 5.62°E
Report Text: ELLX 210220Z AUTO 24007KT 210V270 7000 NDV 10/10 Q1014
Loading
Personal Weather Stations






























Interactive Weather Map
Tropical Storm Tracking
New forecast layout! Learn more

10-Day Weather Forecast

Advertisements
Track Severe Weather on mobile